Igerna, New York
Current Conditions -  °F | °C
As of 9:28 AM on Friday 24 Oct 2014 (Local Time) from KGFL Reporting Station
Haze Haze  
Wind Chill: 44°   Ceiling: 500
Heat Index: 44°   Visibility: 2mi
Dew Point: 43°   Wind: 0mph
Humidity: 96%   Direction: NA
Pressure: 29.85"   Gusts: NA
Location:  43.7289°N, 73.9027°W
Report Text: KGFL 241328Z AUTO 00000KT 2SM BR OVC005 07/06 A2985 RMK AO2 RAE24 CIG 003V008 P0001 T00670061
Loading
Personal Weather Stations






























Interactive Weather Map
Tropical Storm Tracking
New forecast layout! Learn more

10-Day Weather Forecast

Advertisements
Track Severe Weather on mobile